Time;durP1;ratioP1;P1;durP2;ratioP2;P2;SDS_P1;SDS_P2;PMS_P1;PMS_P2;Temp;Humidity;BMP_temperature;BMP_pressure;BME280_temperature;BME280_humidity;BME280_pressure;Samples;Min_cycle;Max_cycle;Signal;HPM_P1;HPM_P2
2021/04/22 00:00:25;;;;;;;24.13;4.30;;;;;;;5.91;73.51;101084.88;5175072;28;20033;-78
2021/04/22 00:02:55;;;;;;;21.88;4.18;;;;;;;5.91;72.71;101082.28;5151913;28;20029;-78
2021/04/22 00:05:30;;;;;;;27.27;4.18;;;;;;;5.84;72.77;101085.78;5169456;28;20026;-78
2021/04/22 00:08:01;;;;;;;27.70;4.43;;;;;;;5.85;72.73;101090.09;5172260;28;20025;-78
2021/04/22 00:10:37;;;;;;;20.92;3.97;;;;;;;5.91;72.95;101079.69;5172798;28;20443;-77
2021/04/22 00:13:08;;;;;;;29.10;4.68;;;;;;;5.87;72.77;101076.25;5172868;28;20045;-78
2021/04/22 00:15:39;;;;;;;26.40;4.65;;;;;;;6.04;72.32;101078.69;5162414;28;20072;-78
2021/04/22 00:18:11;;;;;;;24.10;4.28;;;;;;;5.97;71.89;101090.88;5170457;28;20026;-78
2021/04/22 00:20:41;;;;;;;21.05;4.82;;;;;;;6.00;71.09;101082.19;5171873;28;20065;-78
2021/04/22 00:23:14;;;;;;;23.90;4.05;;;;;;;6.07;71.03;101087.31;5171890;28;20106;-78
2021/04/22 00:25:45;;;;;;;24.35;4.30;;;;;;;6.02;70.99;101086.50;5174688;28;20045;-78
2021/04/22 00:28:16;;;;;;;19.83;3.85;;;;;;;6.08;71.08;101081.22;5171906;28;20030;-78
2021/04/22 00:30:46;;;;;;;26.80;4.70;;;;;;;5.93;71.16;101080.53;5172850;28;20468;-78
2021/04/22 00:33:20;;;;;;;25.95;4.57;;;;;;;6.00;70.77;101087.38;5169170;28;20034;-78
2021/04/22 00:35:51;;;;;;;25.25;4.13;;;;;;;5.93;70.86;101085.72;5171969;28;20033;-78
2021/04/22 00:38:21;;;;;;;29.65;4.80;;;;;;;6.04;71.14;101095.13;5153935;28;20022;-78
2021/04/22 00:40:52;;;;;;;28.60;4.30;;;;;;;5.99;71.26;101090.84;5174321;28;20081;-78
2021/04/22 00:43:23;;;;;;;17.50;4.18;;;;;;;6.15;70.39;101089.81;5170648;28;20026;-78
2021/04/22 00:45:53;;;;;;;19.52;4.30;;;;;;;6.07;71.01;101087.31;5163105;28;20065;-78
2021/04/22 00:48:25;;;;;;;25.10;4.22;;;;;;;6.17;70.48;101091.53;5171454;28;20485;-78
2021/04/22 00:50:56;;;;;;;27.60;4.78;;;;;;;5.90;71.13;101088.34;5161012;28;20032;-78
2021/04/22 00:53:26;;;;;;;27.77;5.05;;;;;;;6.07;71.27;101089.06;5173733;28;20149;-78
2021/04/22 00:55:57;;;;;;;21.75;4.47;;;;;;;5.94;71.51;101097.81;5171925;28;20026;-78
2021/04/22 00:58:27;;;;;;;17.55;4.53;;;;;;;6.12;71.09;101100.25;5171999;28;20037;-78
2021/04/22 01:01:00;;;;;;;21.67;5.03;;;;;;;6.06;71.51;101101.16;5168059;28;20058;-78
2021/04/22 01:03:31;;;;;;;33.97;4.57;;;;;;;5.94;71.43;101103.00;5169336;28;20567;-78
2021/04/22 01:06:03;;;;;;;26.02;4.47;;;;;;;6.14;71.43;101095.91;5169662;28;20037;-78
2021/04/22 01:08:34;;;;;;;20.15;4.15;;;;;;;6.13;71.07;101094.16;5171140;28;20026;-78
2021/04/22 01:11:06;;;;;;;25.08;4.82;;;;;;;6.05;71.82;101091.66;5173044;28;20022;-78
2021/04/22 01:13:36;;;;;;;25.23;4.68;;;;;;;6.03;71.75;101095.13;5171002;28;20022;-78
2021/04/22 01:16:07;;;;;;;27.00;4.45;;;;;;;6.14;71.31;101104.56;5175123;28;20103;-78
2021/04/22 01:18:37;;;;;;;24.13;5.03;;;;;;;6.22;71.29;101099.28;5169309;28;20068;-78
2021/04/22 01:21:16;;;;;;;25.40;4.75;;;;;;;6.28;71.22;101104.41;5154055;28;20033;-78
2021/04/22 01:23:46;;;;;;;24.80;4.60;;;;;;;6.07;70.65;101099.44;5170671;28;20103;-78
2021/04/22 01:26:20;;;;;;;26.35;4.80;;;;;;;5.94;71.37;101100.41;5174020;28;20059;-78
2021/04/22 01:28:51;;;;;;;19.48;4.55;;;;;;;6.11;71.71;101106.31;5170568;28;20032;-78
2021/04/22 01:31:24;;;;;;;24.67;4.68;;;;;;;6.13;71.00;101100.25;5170428;28;20035;-78
2021/04/22 01:34:08;;;;;;;32.63;4.97;;;;;;;6.08;71.50;101098.56;5173098;28;20028;-78
2021/04/22 01:36:41;;;;;;;29.75;4.78;;;;;;;6.01;72.90;101105.53;5155668;28;20492;-78
2021/04/22 01:39:13;;;;;;;24.48;4.65;;;;;;;5.99;72.28;101094.31;5170416;28;20040;-78
2021/04/22 01:41:43;;;;;;;24.33;4.57;;;;;;;6.09;71.94;101102.88;5167686;28;20476;-79
2021/04/22 01:44:13;;;;;;;26.45;5.05;;;;;;;5.80;73.24;101099.66;5167535;28;20085;-78
2021/04/22 01:46:44;;;;;;;21.88;5.00;;;;;;;5.96;73.38;101101.25;5171460;28;20492;-78
2021/04/22 01:49:14;;;;;;;22.75;4.60;;;;;;;6.05;73.76;101108.97;5172599;28;20113;-78
2021/04/22 01:51:44;;;;;;;25.52;4.63;;;;;;;5.94;74.32;101108.19;5169215;28;20022;-78
2021/04/22 01:54:14;;;;;;;22.42;4.70;;;;;;;5.99;74.23;101111.59;5173227;28;20049;-78
2021/04/22 01:56:45;;;;;;;23.83;4.22;;;;;;;5.83;75.47;101105.69;5168909;28;20118;-78
2021/04/22 01:59:15;;;;;;;19.90;4.40;;;;;;;5.76;75.23;101110.91;5172154;28;20105;-78
2021/04/22 02:01:45;;;;;;;28.98;4.93;;;;;;;5.79;75.49;101108.31;5169797;28;20022;-78
2021/04/22 02:04:17;;;;;;;26.17;4.50;;;;;;;5.85;75.44;101103.94;5169210;28;20065;-78
2021/04/22 02:06:47;;;;;;;26.38;5.20;;;;;;;5.78;75.66;101107.44;5145677;28;20025;-78
2021/04/22 02:09:18;;;;;;;25.65;4.90;;;;;;;5.63;76.73;101109.25;5168615;28;20037;-78
2021/04/22 02:11:48;;;;;;;27.73;5.20;;;;;;;5.75;75.97;101111.78;5156303;28;20702;-78
2021/04/22 02:14:19;;;;;;;28.92;4.35;;;;;;;5.69;75.70;101106.59;5165513;28;20030;-78
2021/04/22 02:16:49;;;;;;;30.15;4.75;;;;;;;5.61;76.31;101111.00;5165161;28;20080;-78
2021/04/22 02:19:19;;;;;;;28.80;5.00;;;;;;;5.57;76.33;101115.34;5174968;28;20109;-77
2021/04/22 02:21:51;;;;;;;23.75;4.40;;;;;;;5.47;77.06;101107.63;5157569;28;20499;-78
2021/04/22 02:24:21;;;;;;;25.75;5.07;;;;;;;5.27;77.72;101104.31;5167804;28;20058;-78
2021/04/22 02:26:51;;;;;;;28.25;5.07;;;;;;;5.37;77.37;101113.78;5150808;28;20518;-78
2021/04/22 02:29:21;;;;;;;25.80;4.97;;;;;;;5.23;77.79;101105.22;5170555;28;20026;-78
2021/04/22 02:31:52;;;;;;;32.85;4.50;;;;;;;5.28;78.42;101108.63;5175584;28;20128;-77
2021/04/22 02:34:22;;;;;;;23.63;4.38;;;;;;;5.21;77.61;101106.94;5170389;28;20041;-78
2021/04/22 02:36:52;;;;;;;19.13;4.32;;;;;;;5.16;78.26;101116.44;5155690;28;20032;-78
2021/04/22 02:39:23;;;;;;;33.60;5.25;;;;;;;5.19;78.31;101119.03;5176893;28;20029;-78
2021/04/22 02:41:53;;;;;;;17.17;4.30;;;;;;;5.10;78.66;101126.84;5173514;28;20030;-78
2021/04/22 02:44:23;;;;;;;27.00;5.05;;;;;;;5.00;78.66;101125.16;5169951;28;20477;-78
2021/04/22 02:46:53;;;;;;;28.85;4.82;;;;;;;4.92;79.37;101121.75;5150928;28;20030;-77
2021/04/22 02:49:24;;;;;;;26.65;4.93;;;;;;;4.79;79.19;101133.03;5175410;28;20074;-77
2021/04/22 02:51:54;;;;;;;32.13;5.60;;;;;;;4.93;79.49;101131.25;5174570;28;20041;-78
2021/04/22 02:54:24;;;;;;;21.85;4.32;;;;;;;4.89;79.81;101129.56;5174558;28;20038;-79
2021/04/22 02:56:55;;;;;;;29.42;5.05;;;;;;;4.91;79.65;101127.81;5172533;28;20479;-78
2021/04/22 02:59:25;;;;;;;24.83;5.07;;;;;;;4.89;79.57;101129.56;5172674;28;20113;-78
2021/04/22 03:01:55;;;;;;;22.98;4.85;;;;;;;4.98;79.16;101124.31;5155384;28;20037;-78
2021/04/22 03:04:25;;;;;;;26.80;4.63;;;;;;;4.99;78.86;101120.00;5173319;28;20022;-78
2021/04/22 03:06:56;;;;;;;24.10;4.35;;;;;;;4.78;79.73;101115.78;5170714;28;20113;-78
2021/04/22 03:09:26;;;;;;;25.33;5.10;;;;;;;4.98;79.18;101110.53;5171825;28;20044;-78
2021/04/22 03:11:56;;;;;;;26.27;4.97;;;;;;;4.90;79.67;101114.84;5175145;28;20080;-78
2021/04/22 03:14:27;;;;;;;24.90;4.57;;;;;;;4.93;79.03;101105.34;5167911;28;20036;-78
2021/04/22 03:16:57;;;;;;;25.63;5.15;;;;;;;4.83;79.18;101114.00;5168087;28;20028;-79
2021/04/22 03:19:27;;;;;;;30.63;5.20;;;;;;;4.76;80.23;101121.81;5173378;28;20030;-77
2021/04/22 03:21:58;;;;;;;26.90;5.43;;;;;;;4.71;80.46;101113.22;5174246;28;20034;-78
2021/04/22 03:24:28;;;;;;;27.15;4.50;;;;;;;4.73;80.45;101116.66;5173987;28;20046;-77
2021/04/22 03:26:58;;;;;;;23.98;4.45;;;;;;;4.81;80.37;101120.94;5174459;28;20033;-78
2021/04/22 03:29:29;;;;;;;22.00;4.40;;;;;;;4.86;80.29;101116.63;5172255;28;20026;-78
2021/04/22 03:31:59;;;;;;;25.45;4.78;;;;;;;4.99;80.71;101128.63;5173618;28;20026;-78
2021/04/22 03:34:29;;;;;;;21.73;4.70;;;;;;;5.07;80.19;101124.28;5172444;28;20109;-78
2021/04/22 03:36:59;;;;;;;28.25;5.00;;;;;;;5.17;80.13;101125.09;5173275;28;20043;-78
2021/04/22 03:39:30;;;;;;;30.73;5.13;;;;;;;5.32;79.71;101125.03;5155758;28;20540;-77
2021/04/22 03:42:00;;;;;;;23.13;4.20;;;;;;;5.34;78.93;101121.53;5169330;28;20053;-78
2021/04/22 03:44:30;;;;;;;29.63;4.75;;;;;;;5.37;78.48;101123.25;5170701;28;20105;-78
2021/04/22 03:47:01;;;;;;;19.90;4.55;;;;;;;5.50;78.64;101124.03;5168979;28;20045;-78
2021/04/22 03:49:31;;;;;;;30.58;4.68;;;;;;;5.64;78.33;101126.53;5173564;28;20019;-78
2021/04/22 03:52:02;;;;;;;22.08;4.20;;;;;;;5.57;78.03;101128.31;5172980;28;20100;-78
2021/04/22 03:54:33;;;;;;;21.80;4.45;;;;;;;5.70;77.32;101129.94;5170164;28;20034;-78
2021/04/22 03:57:05;;;;;;;28.63;4.95;;;;;;;5.70;77.75;101129.06;5171368;28;20081;-78
2021/04/22 03:59:35;;;;;;;22.10;4.28;;;;;;;5.80;77.73;101121.28;5172157;28;20058;-78
2021/04/22 04:02:06;;;;;;;26.05;4.45;;;;;;;5.73;78.11;101134.25;5173054;28;20186;-79
2021/04/22 04:04:36;;;;;;;22.80;4.70;;;;;;;5.81;77.15;101132.50;5170787;28;20065;-78
2021/04/22 04:07:06;;;;;;;28.95;5.20;;;;;;;5.82;77.66;101135.09;5172601;28;20117;-78
2021/04/22 04:09:36;;;;;;;22.42;5.18;;;;;;;5.83;78.47;101126.44;5172342;28;20030;-78
2021/04/22 04:12:07;;;;;;;26.42;4.93;;;;;;;5.71;77.84;101129.06;5174426;28;20843;-79
2021/04/22 04:14:38;;;;;;;26.40;4.65;;;;;;;5.71;78.21;101136.00;5167446;28;20578;-78
2021/04/22 04:17:08;;;;;;;29.13;5.35;;;;;;;5.80;78.06;101125.59;5150368;28;20038;-78
2021/04/22 04:19:38;;;;;;;22.35;4.53;;;;;;;5.71;78.11;101130.81;5148087;28;20044;-78
2021/04/22 04:22:09;;;;;;;20.38;5.07;;;;;;;5.85;78.50;101127.28;5186843;23;20046;-78
2021/04/22 04:24:39;;;;;;;27.35;4.70;;;;;;;5.87;78.04;101130.72;5171217;28;20498;-77
2021/04/22 04:27:09;;;;;;;24.73;5.25;;;;;;;5.78;78.30;101135.06;5190097;28;20041;-78
2021/04/22 04:29:40;;;;;;;24.67;4.75;;;;;;;5.94;77.78;101134.13;5185023;28;20056;-77
2021/04/22 04:32:10;;;;;;;27.45;4.80;;;;;;;5.93;78.06;101147.97;5184980;28;20038;-78
2021/04/22 04:34:40;;;;;;;21.92;4.60;;;;;;;6.03;78.28;101137.50;5186282;28;20037;-78
2021/04/22 04:37:11;;;;;;;21.42;4.18;;;;;;;6.15;77.25;101136.53;5169600;28;20030;-78
2021/04/22 04:39:41;;;;;;;24.83;6.28;;;;;;;6.21;76.95;101139.94;5186311;28;20037;-77
2021/04/22 04:42:12;;;;;;;24.50;4.60;;;;;;;6.13;77.12;101146.06;5187690;28;20126;-77
2021/04/22 04:44:42;;;;;;;20.67;4.65;;;;;;;6.05;76.89;101142.69;5185757;28;20373;-77
2021/04/22 04:47:12;;;;;;;26.85;5.05;;;;;;;6.02;77.92;101134.91;5188658;28;20034;-78
2021/04/22 04:49:43;;;;;;;26.90;4.72;;;;;;;6.18;76.58;101139.09;5186771;28;20025;-78
2021/04/22 04:52:13;;;;;;;25.52;4.30;;;;;;;6.29;75.84;101137.28;5187769;28;20492;-77
2021/04/22 04:54:43;;;;;;;24.92;4.47;;;;;;;6.20;76.43;101138.22;5189414;28;20052;-78
2021/04/22 04:57:14;;;;;;;25.15;4.95;;;;;;;6.15;76.07;101141.72;5180487;28;20041;-78
2021/04/22 04:59:44;;;;;;;26.75;4.72;;;;;;;6.26;75.10;101147.69;5181470;28;20049;-78
2021/04/22 05:02:14;;;;;;;24.73;3.78;;;;;;;6.49;74.38;101145.72;5181272;28;20075;-78
2021/04/22 05:04:44;;;;;;;25.08;5.10;;;;;;;6.76;73.53;101156.69;5181337;28;20026;-78
2021/04/22 05:07:15;;;;;;;21.90;4.07;;;;;;;6.72;72.50;101147.22;5181313;28;20041;-79
2021/04/22 05:09:45;;;;;;;22.08;4.20;;;;;;;7.00;72.29;101140.81;5181490;28;20052;-79
2021/04/22 05:12:15;;;;;;;21.45;4.10;;;;;;;7.15;72.16;101145.84;5181051;28;20036;-78
2021/04/22 05:14:46;;;;;;;20.58;4.15;;;;;;;7.12;72.51;101151.03;5179956;28;20396;-78
2021/04/22 05:17:17;;;;;;;20.70;4.10;;;;;;;6.88;73.63;101155.69;5181580;28;20025;-78
2021/04/22 05:19:47;;;;;;;22.42;4.20;;;;;;;6.69;73.54;101165.44;5185521;28;20030;-80
2021/04/22 05:22:17;;;;;;;17.88;3.67;;;;;;;6.74;74.04;101158.44;5189416;28;20075;-80
2021/04/22 05:24:48;;;;;;;21.77;4.03;;;;;;;6.90;73.61;101159.16;5188675;28;20026;-79
2021/04/22 05:27:18;;;;;;;25.17;4.55;;;;;;;6.83;74.15;101168.75;5187849;28;20030;-79
2021/04/22 05:29:48;;;;;;;24.63;4.53;;;;;;;6.71;73.87;101175.78;5189466;28;20045;-79
2021/04/22 05:32:19;;;;;;;28.58;4.38;;;;;;;6.69;74.52;101174.94;5190527;28;20364;-79
2021/04/22 05:34:49;;;;;;;29.05;4.88;;;;;;;6.83;73.46;101180.84;5184043;28;20707;-79
2021/04/22 05:37:19;;;;;;;20.13;4.15;;;;;;;6.86;72.94;101176.50;5182897;28;20034;-79
2021/04/22 05:39:50;;;;;;;22.83;3.80;;;;;;;6.81;72.43;101169.63;5183908;28;20475;-79
2021/04/22 05:42:20;;;;;;;23.63;4.38;;;;;;;6.90;73.28;101177.34;5180923;28;20047;-80
2021/04/22 05:44:50;;;;;;;19.60;4.25;;;;;;;6.99;72.86;101174.63;5181435;28;20033;-79
2021/04/22 05:47:20;;;;;;;18.55;3.88;;;;;;;6.86;72.86;101184.28;5181463;28;20038;-79
2021/04/22 05:49:51;;;;;;;21.95;4.20;;;;;;;6.96;72.85;101195.44;5181975;28;20033;-79
2021/04/22 05:52:21;;;;;;;29.77;4.57;;;;;;;6.84;72.80;101185.16;5180151;28;20037;-79
2021/04/22 05:54:51;;;;;;;19.20;4.32;;;;;;;6.90;73.01;101195.53;5180171;28;20030;-79
2021/04/22 05:57:22;;;;;;;29.67;4.88;;;;;;;7.03;72.27;101191.88;5180502;28;20114;-79
2021/04/22 05:59:52;;;;;;;20.27;5.10;;;;;;;7.03;71.71;101197.94;5162621;28;20120;-79
2021/04/22 06:02:23;;;;;;;24.83;4.35;;;;;;;7.08;72.19;101195.31;5179429;28;20484;-78
2021/04/22 06:04:53;;;;;;;20.10;4.07;;;;;;;7.08;71.65;101193.56;5179326;28;20101;-79
2021/04/22 06:07:23;;;;;;;24.98;4.20;;;;;;;7.21;71.77;101191.66;5185142;28;20030;-78
2021/04/22 06:09:53;;;;;;;26.33;5.30;;;;;;;7.19;70.31;101193.41;5184285;28;20503;-79
2021/04/22 06:12:24;;;;;;;20.17;3.92;;;;;;;7.34;69.67;101187.16;5184920;28;20037;-80
2021/04/22 06:14:54;;;;;;;21.30;3.53;;;;;;;7.37;69.70;101184.50;5185639;28;20025;-79
2021/04/22 06:17:24;;;;;;;18.92;4.53;;;;;;;7.45;70.29;101187.88;5186047;28;20387;-78
2021/04/22 06:19:55;;;;;;;23.52;4.30;;;;;;;7.69;69.81;101190.16;5185477;28;20153;-78
2021/04/22 06:22:25;;;;;;;27.30;3.92;;;;;;;7.71;68.97;101192.75;5184541;28;20033;-78
2021/04/22 06:24:55;;;;;;;26.13;4.45;;;;;;;7.75;69.07;101186.59;5184757;28;20025;-79
2021/04/22 06:27:25;;;;;;;22.92;4.88;;;;;;;7.61;69.92;101183.31;5186677;28;20057;-79
2021/04/22 06:29:56;;;;;;;15.98;3.75;;;;;;;7.71;69.76;101184.94;5187444;28;20024;-80
2021/04/22 06:32:26;;;;;;;20.00;3.63;;;;;;;7.54;68.82;101192.09;5181344;28;20030;-80
2021/04/22 06:34:56;;;;;;;20.30;3.25;;;;;;;7.37;68.56;101194.06;5187673;28;20037;-80
2021/04/22 06:37:27;;;;;;;24.73;4.72;;;;;;;7.47;67.85;101193.94;5187573;28;20624;-80
2021/04/22 06:40:00;;;;;;;20.20;3.38;;;;;;;7.65;68.13;101192.81;5188162;28;20049;-79
2021/04/22 06:42:31;;;;;;;22.40;3.75;;;;;;;7.75;66.80;101187.47;5188419;28;20045;-80
2021/04/22 06:45:01;;;;;;;21.17;3.60;;;;;;;7.87;66.98;101192.47;5188109;28;20065;-80
2021/04/22 06:47:31;;;;;;;22.13;5.00;;;;;;;7.88;66.47;101194.19;5187908;28;20590;-80
2021/04/22 06:50:04;;;;;;;22.67;3.95;;;;;;;8.08;66.39;101192.16;5189001;28;20088;-80
2021/04/22 06:52:35;;;;;;;23.13;4.22;;;;;;;8.21;66.88;101201.53;5188432;28;20053;-80
2021/04/22 06:55:15;;;;;;;24.60;4.60;;;;;;;8.01;66.49;101200.09;5189670;28;20028;-80
2021/04/22 06:57:46;;;;;;;23.02;3.47;;;;;;;8.73;64.72;101194.53;5171626;28;20037;-79
2021/04/22 07:00:19;;;;;;;20.33;3.33;;;;;;;8.48;64.25;101208.03;5188149;28;20025;-80
2021/04/22 07:02:50;;;;;;;19.05;3.70;;;;;;;8.88;63.94;101209.91;5188255;28;20032;-80
2021/04/22 07:05:21;;;;;;;20.88;4.28;;;;;;;9.06;64.54;101213.91;5190733;28;20025;-80
2021/04/22 07:07:52;;;;;;;23.40;3.42;;;;;;;8.96;63.35;101209.75;5189636;28;20029;-80
2021/04/22 07:10:22;;;;;;;23.75;3.60;;;;;;;9.64;62.80;101210.09;5192736;28;20235;-80
2021/04/22 07:12:53;;;;;;;20.20;3.47;;;;;;;9.91;60.87;101204.25;5174783;28;20029;-81
2021/04/22 07:15:24;;;;;;;23.27;4.13;;;;;;;10.11;60.25;101207.28;5192173;28;20431;-80
2021/04/22 07:17:54;;;;;;;18.65;3.50;;;;;;;10.17;61.02;101207.16;5191219;28;20069;-80
2021/04/22 07:20:25;;;;;;;14.10;3.63;;;;;;;11.11;59.41;101204.66;5192881;28;20085;-80
2021/04/22 07:22:57;;;;;;;16.42;3.85;;;;;;;11.19;58.68;101205.28;5192123;28;20565;-80
2021/04/22 07:25:33;;;;;;;27.50;4.32;;;;;;;10.50;60.74;101208.94;5191090;28;20120;-80
2021/04/22 07:28:05;;;;;;;15.88;3.15;;;;;;;12.14;57.61;101201.53;5191120;28;20025;-81
2021/04/22 07:30:37;;;;;;;17.25;3.90;;;;;;;11.74;56.02;101201.06;5193594;28;20035;-81
2021/04/22 07:33:08;;;;;;;17.67;3.80;;;;;;;10.85;58.78;101207.13;5190876;28;20060;-80
2021/04/22 07:35:39;;;;;;;18.58;3.47;;;;;;;11.82;57.09;101204.28;5192607;28;20030;-81
2021/04/22 07:38:15;;;;;;;18.10;3.03;;;;;;;14.03;52.73;101184.16;5189712;28;20112;-80
2021/04/22 07:40:45;;;;;;;;;;;;;;;14.78;50.40;101189.75;5186439;28;20505;-80
2021/04/22 07:43:16;;;;;;;17.20;2.85;;;;;;;15.58;48.88;101187.91;5184973;28;20008;-80
2021/04/22 07:45:46;;;;;;;16.20;3.67;;;;;;;15.62;48.89;101188.59;5184965;28;20029;-80
2021/04/22 07:48:16;;;;;;;15.20;2.85;;;;;;;14.96;50.07;101195.09;5184100;28;20042;-81
2021/04/22 07:50:47;;;;;;;17.52;3.58;;;;;;;13.37;53.80;101208.63;5184868;28;20153;-80
2021/04/22 07:53:18;;;;;;;16.30;4.05;;;;;;;11.39;56.81;101211.69;5179772;28;20037;-79
2021/04/22 07:55:49;;;;;;;21.02;3.50;;;;;;;10.58;59.27;101223.53;5186512;28;20068;-79
2021/04/22 07:58:20;;;;;;;16.25;3.10;;;;;;;10.09;61.20;101228.22;5184420;28;20069;-79
2021/04/22 08:00:51;;;;;;;24.75;4.13;;;;;;;9.94;62.43;101230.28;5184618;28;20526;-80
2021/04/22 08:03:21;;;;;;;15.73;3.33;;;;;;;9.52;63.24;101232.06;5182640;28;20047;-78
2021/04/22 08:05:57;;;;;;;18.50;3.40;;;;;;;9.51;64.08;101239.94;5183327;28;20372;-79
2021/04/22 08:08:27;;;;;;;18.02;3.60;;;;;;;9.56;65.17;101240.69;5183630;28;20029;-79
2021/04/22 08:10:58;;;;;;;23.27;3.83;;;;;;;9.86;63.83;101242.66;5183523;28;20029;-79
2021/04/22 08:13:28;;;;;;;20.27;4.82;;;;;;;9.90;63.67;101239.06;5183710;28;20092;-80
2021/04/22 08:15:58;;;;;;;18.00;3.22;;;;;;;10.10;62.42;101236.91;5182604;28;20711;-78
2021/04/22 08:18:29;;;;;;;18.17;3.67;;;;;;;10.13;63.19;101247.31;5183080;28;20030;-79
2021/04/22 08:21:00;;;;;;;21.00;4.03;;;;;;;9.94;63.74;101251.16;5183573;28;20034;-79
2021/04/22 08:23:32;;;;;;;16.88;3.85;;;;;;;10.38;63.89;101248.44;5182325;28;20521;-80
2021/04/22 08:26:10;;;;;;;16.98;3.38;;;;;;;12.36;58.35;101244.53;5184381;28;20434;-80
2021/04/22 08:28:41;;;;;;;15.45;3.58;;;;;;;11.17;60.03;101249.84;5183149;28;20022;-79
2021/04/22 08:31:22;;;;;;;15.93;3.05;;;;;;;10.57;61.15;101252.31;5183474;28;20071;-79
2021/04/22 08:33:57;;;;;;;17.13;2.90;;;;;;;10.99;60.57;101253.84;5165841;28;20037;-80
2021/04/22 08:36:27;;;;;;;19.63;3.30;;;;;;;11.38;58.64;101248.38;5183201;28;20025;-79
2021/04/22 08:38:57;;;;;;;17.58;3.05;;;;;;;10.70;59.89;101251.94;5182303;28;20037;-79
2021/04/22 08:41:28;;;;;;;12.82;2.38;;;;;;;10.28;61.25;101246.91;5183141;28;20030;-79
2021/04/22 08:44:00;;;;;;;12.45;2.80;;;;;;;9.99;61.70;101259.78;5182801;28;20532;-79
2021/04/22 08:46:35;;;;;;;13.88;2.85;;;;;;;9.95;62.87;101253.75;5183067;28;20483;-78
2021/04/22 08:49:05;;;;;;;19.13;3.20;;;;;;;9.93;62.68;101259.88;5165420;28;20024;-78
2021/04/22 08:51:36;;;;;;;18.88;3.88;;;;;;;9.75;63.03;101258.56;5184614;28;20029;-79
2021/04/22 08:54:06;;;;;;;12.77;2.60;;;;;;;9.51;62.90;101272.09;5163510;28;20034;-79
2021/04/22 08:56:38;;;;;;;16.85;3.30;;;;;;;9.37;63.25;101263.72;5181738;28;20659;-79
2021/04/22 08:59:08;;;;;;;19.35;2.92;;;;;;;9.36;63.29;101254.16;5182079;28;20033;-78
2021/04/22 09:01:39;;;;;;;18.20;3.25;;;;;;;9.59;63.15;101279.75;5181134;28;20059;-80
2021/04/22 09:04:09;;;;;;;18.50;2.97;;;;;;;10.75;60.18;101270.16;5182293;28;20391;-80
2021/04/22 09:06:40;;;;;;;15.50;3.03;;;;;;;10.78;59.70;101264.84;5182521;28;20046;-80
2021/04/22 09:09:10;;;;;;;11.25;2.88;;;;;;;10.48;60.61;101276.91;5182958;28;20026;-78
2021/04/22 09:11:47;;;;;;;15.52;3.55;;;;;;;11.16;59.31;101266.44;5182004;28;20083;-78
2021/04/22 09:14:20;;;;;;;15.38;3.47;;;;;;;11.28;59.27;101271.31;5165396;28;20038;-78
2021/04/22 09:16:51;;;;;;;15.32;3.80;;;;;;;11.19;58.66;101268.09;5179628;28;20034;-79
2021/04/22 09:19:24;;;;;;;17.15;3.80;;;;;;;11.50;58.88;101262.00;5183620;28;20029;-80
2021/04/22 09:21:57;;;;;;;19.25;3.60;;;;;;;11.88;58.23;101260.88;5182717;28;20021;-79
2021/04/22 09:24:27;;;;;;;15.68;4.13;;;;;;;12.40;57.30;101269.72;5183196;28;20038;-80
2021/04/22 09:27:04;;;;;;;22.05;4.95;;;;;;;11.94;57.34;101263.34;5181269;28;20018;-80
2021/04/22 09:29:40;;;;;;;34.08;12.20;;;;;;;11.73;56.75;101262.22;5182394;28;20029;-79
2021/04/22 09:32:27;;;;;;;35.63;8.77;;;;;;;11.61;56.18;101251.25;5181349;28;20101;-79
2021/04/22 09:35:05;;;;;;;46.53;12.88;;;;;;;11.08;58.06;101260.53;5181003;28;20026;-81
2021/04/22 09:37:43;;;;;;;36.55;9.82;;;;;;;11.02;59.13;101262.44;5181911;28;20034;-78
2021/04/22 09:40:34;;;;;;;39.67;12.55;;;;;;;11.37;58.52;101259.72;5184930;28;20036;-79
2021/04/22 09:43:11;;;;;;;46.10;12.52;;;;;;;11.69;58.30;101255.34;5185829;28;20018;-79
2021/04/22 09:45:45;;;;;;;24.67;6.72;;;;;;;12.25;56.35;101248.38;5187663;28;20029;-79
2021/04/22 09:49:04;;;;;;;26.48;8.25;;;;;;;12.02;55.52;101256.09;5187686;28;20026;-80
2021/04/22 09:51:34;;;;;;;17.13;5.30;;;;;;;11.85;55.84;101251.38;5180463;28;20046;-78
2021/04/22 09:54:07;;;;;;;16.48;6.28;;;;;;;12.12;55.06;101255.75;5185283;28;20030;-78
2021/04/22 09:56:43;;;;;;;16.17;3.80;;;;;;;11.57;55.58;101257.44;5186879;28;20088;-78
2021/04/22 09:59:18;;;;;;;20.80;5.95;;;;;;;11.29;57.02;101267.78;5185209;28;20064;-77
2021/04/22 10:02:07;;;;;;;22.50;6.47;;;;;;;11.18;58.92;101272.47;5181203;28;20392;-78
2021/04/22 10:04:41;;;;;;;20.90;5.80;;;;;;;11.02;57.86;101275.53;5184979;28;20038;-77
2021/04/22 10:07:28;;;;;;;21.10;4.18;;;;;;;11.07;58.62;101268.44;5183894;28;20032;-78
2021/04/22 10:10:14;;;;;;;14.00;3.22;;;;;;;11.46;57.93;101272.56;5181269;28;20383;-78
2021/04/22 10:12:44;;;;;;;17.60;3.33;;;;;;;11.58;56.88;101254.78;5183290;28;20041;-77
2021/04/22 10:15:18;;;;;;;17.10;5.22;;;;;;;11.98;56.87;101250.06;5184828;28;20038;-78
2021/04/22 10:17:53;;;;;;;22.00;5.35;;;;;;;12.30;57.03;101254.34;5185234;28;20025;-78
2021/04/22 10:20:25;;;;;;;18.33;4.70;;;;;;;11.84;57.12;101259.25;5184783;28;20117;-78
2021/04/22 10:22:56;;;;;;;29.80;6.85;;;;;;;11.69;57.38;101257.09;5224835;23;20452;-80
2021/04/22 10:25:35;;;;;;;29.17;8.85;;;;;;;11.97;57.35;101255.38;5221898;28;20033;-80
2021/04/22 10:28:08;;;;;;;17.85;5.25;;;;;;;12.03;57.00;101260.44;5212654;28;20022;-80
2021/04/22 10:30:41;;;;;;;16.52;4.43;;;;;;;11.78;55.45;101252.44;5212161;28;20037;-80
2021/04/22 10:33:12;;;;;;;16.75;3.97;;;;;;;11.93;55.25;101249.38;5213844;28;20021;-81
2021/04/22 10:35:45;;;;;;;18.60;3.75;;;;;;;11.81;55.79;101248.88;5213314;28;20481;-80
2021/04/22 10:38:18;;;;;;;15.43;4.90;;;;;;;12.14;56.58;101268.81;5215426;28;20036;-80
2021/04/22 10:40:52;;;;;;;16.05;4.22;;;;;;;11.95;55.13;101268.50;5220179;28;20025;-80
2021/04/22 10:43:25;;;;;;;19.60;6.07;;;;;;;11.57;55.50;101271.41;5214667;28;20029;-80
2021/04/22 10:45:56;;;;;;;20.20;4.88;;;;;;;11.39;57.26;101277.13;5206672;28;20069;-79
2021/04/22 10:48:27;;;;;;;19.58;5.90;;;;;;;11.58;57.73;101267.03;5209904;28;20545;-79
2021/04/22 10:50:57;;;;;;;17.00;4.68;;;;;;;11.84;55.65;101269.75;5217826;28;20032;-80
2021/04/22 10:53:28;;;;;;;19.45;4.25;;;;;;;11.87;55.88;101265.28;5215239;28;20040;-79
2021/04/22 10:55:58;;;;;;;25.13;9.40;;;;;;;12.09;56.26;101268.97;5208223;28;20029;-80
2021/04/22 10:58:38;;;;;;;24.58;12.27;;;;;;;12.09;56.21;101271.56;5216560;28;20021;-80
2021/04/22 11:01:14;;;;;;;19.30;3.70;;;;;;;11.68;56.29;101276.31;5212958;28;20040;-81
2021/04/22 11:03:47;;;;;;;16.05;3.20;;;;;;;11.31;57.03;101286.09;5218895;28;20112;-80
2021/04/22 11:06:20;;;;;;;21.67;3.15;;;;;;;11.55;55.80;101282.78;5211922;28;20114;-80
2021/04/22 11:08:52;;;;;;;14.75;2.50;;;;;;;11.59;56.09;101276.59;5214175;28;20017;-81
2021/04/22 11:11:34;;;;;;;14.00;2.80;;;;;;;11.74;56.07;101274.41;5234494;28;20033;-80
2021/04/22 11:14:09;;;;;;;19.25;3.17;;;;;;;12.19;56.03;101277.41;5215703;28;20025;-81
2021/04/22 11:17:00;;;;;;;11.55;2.67;;;;;;;12.18;55.53;101254.72;5214445;28;20079;-82
2021/04/22 11:19:32;;;;;;;9.25;2.47;;;;;;;11.42;55.79;101265.72;5208440;28;20033;-81
2021/04/22 11:22:13;;;;;;;16.27;2.65;;;;;;;11.29;56.74;101285.28;5224982;28;20025;-81
2021/04/22 11:25:05;;;;;;;16.02;3.05;;;;;;;11.56;57.08;101274.06;5211472;28;20029;-81
2021/04/22 11:27:52;;;;;;;14.00;2.75;;;;;;;11.51;56.29;101274.16;5214388;28;20036;-81
2021/04/22 11:30:28;;;;;;;11.55;2.97;;;;;;;11.71;55.80;101273.63;5209408;28;20025;-81
2021/04/22 11:33:00;;;;;;;13.25;3.28;;;;;;;11.75;54.87;101275.28;5209424;28;20374;-81
2021/04/22 11:35:31;;;;;;;12.25;2.80;;;;;;;11.79;55.04;101282.97;5216472;28;20029;-81
2021/04/22 11:38:07;;;;;;;16.00;3.33;;;;;;;11.64;56.32;101285.19;5229339;28;20032;-80
2021/04/22 11:40:46;;;;;;;16.02;3.50;;;;;;;11.71;54.74;101287.59;5217915;28;20120;-81
2021/04/22 11:43:26;;;;;;;19.92;3.42;;;;;;;11.83;53.77;101268.91;5209681;28;20028;-80